Aviation Digital Data Service (ADDS)

Output produced by METARs form (0233 UTC 01 November 2014)
found at http://aviationweather.gov/adds/metars/
 
KHKY 312346Z 0100/0124 VRB03KT P6SM VCSH OVC035 
     FM010500 34007KT 5SM -SHRA BR OVC030 
     FM010800 35009KT 4SM -SHRA OVC018 
     FM011100 36010G18KT 4SM -SHRASN BR OVC016 
     FM011500 36014G25KT 5SM -SHRA OVC017 
     FM011900 34015G26KT P6SM BKN050